• Join FlightAware (Why Join?)
  • Login
  • US Flag 
06:07AM EDT


 

Airport Tracker/Info


-or-


 

Live Flight TrackerFlight Track Log ✈ DAL6066 ✈ 15-May-2013 ✈ KGRR - KDTW

Flight Track Log - Related Links

Times and Time Zones

All times are in EDT time to prevent confusion due to time zone crossing. See the DAL6066 flight status page for this flight to view local times or setup timezone preferences in your user account.

Time Position Orientation Groundspeed Altitude Reporting Facility
EDT Latitude Longitude Course Direction KTS MPH feet Rate Location/Type
10:31AM 42.8847 -85.5703 62° Northeast 166 191 2,900  Level Chicago Center
10:32AM 42.9233 -85.5450 26° Northeast 215 247 5,100 2,220 Climbing Chicago Center
10:33AM 42.9436 -85.4489 74° East 255 293 7,600 2,220 Climbing Chicago Center
10:34AM 42.9304 -85.0968 63° Northeast  Level FlightAware Approximate
10:34AM 42.9714 -85.3172 74° East 293 337 9,800  Level Chicago Center
10:35AM 42.9775 -84.9724 62° Northeast  Level FlightAware Approximate
10:35AM 42.9992 -85.2000 72° East 319 367 11,000  Level Chicago Center
10:36AM 43.0257 -84.8487 62° Northeast  Level FlightAware Approximate
10:36AM 43.0242 -85.0847 73° East 322 371 11,000  Level Chicago Center
10:37AM 43.0494 -84.9708 73° East 314 361 11,100  Climbing Chicago Center
10:38AM 43.0650 -84.8500 80° East 332 382 11,100  Level Chicago Center
10:39AM 43.0372 -84.7086 105° East 320 368 11,100 240 Level Chicago Center
10:40AM 43.0136 -84.5911 105° East 321 369 11,600 480 Climbing Chicago Center
10:41AM 42.9897 -84.4725 105° East 325 374 12,100 240 Climbing Chicago Center
10:42AM 42.9653 -84.3533 106° East 325 374 12,100 -120 Level Chicago Center
10:43AM 42.9544 -84.3108 109° East 327 376 12,000  Descending Cleveland Center
10:43AM 42.9419 -84.2450 105° East 323 372 12,100  Climbing Cleveland Center
10:44AM 42.9311 -84.1933 106° East 322 371 12,000  Descending Cleveland Center
10:44AM 42.9200 -84.1417 106° East 321 369 12,100  Climbing Cleveland Center
10:45AM 42.9053 -84.0811 108° East 322 371 12,000  Descending Cleveland Center
10:45AM 42.9003 -84.0411 100° East 311 358 12,100  Climbing Cleveland Center
10:46AM 42.8836 -83.9667 107° East 317 365 12,000  Descending Cleveland Center
10:46AM 42.8750 -83.9094 102° East 317 365 12,100 60 Climbing Cleveland Center
10:47AM 42.8600 -83.8519 110° East 317 365 12,100  Level Cleveland Center
10:47AM 42.8508 -83.8006 104° East 321 369 12,100  Level Cleveland Center
10:48AM 42.8275 -83.7397 118° Southeast 317 365 12,100 -300 Level Cleveland Center
10:48AM 42.7992 -83.7131 145° Southeast 295 339 11,800 -900 Descending Cleveland Center
10:49AM 42.7561 -83.6881 157° South 296 341 11,200 -1,020 Descending Cleveland Center
10:49AM 42.7231 -83.6725 161° South 286 329 10,800 -1,020 Descending Cleveland Center
10:50AM 42.6842 -83.6450 153° Southeast 281 323 10,200 -1,200 Descending Cleveland Center
10:50AM 42.6511 -83.6292 161° South 283 326 9,600 -1,440 Descending Cleveland Center
10:51AM 42.6125 -83.6019 153° Southeast 281 323 8,800 -1,620 Descending Cleveland Center
10:51AM 42.5908 -83.5444 117° Southeast 308 354 7,800 -1,800 Descending Cleveland Center
10:52AM 42.5794 -83.4989 109° East 274 315 7,000 -1,800 Descending Cleveland Center
10:52AM 42.5642 -83.4447 111° Southeast 295 339 6,200 -1,020 Descending Cleveland Center
10:53AM 42.5531 -83.3961 107° East 274 315 6,000 -120 Descending Cleveland Center
10:53AM 42.5375 -83.3447 112° Southeast 275 316 6,100 -600 Climbing Cleveland Center
10:54AM 42.4892 -83.2694 131° Southeast 263 303 5,200 -840 Descending Cleveland Center
10:55AM 42.4292 -83.2556 170° South 196 226 4,500 -300 Descending Cleveland Center
10:56AM 42.3750 -83.2561 180° South 190 219 4,600 -420 Climbing Cleveland Center
10:57AM 42.3325 -83.2825 205° Southwest 173 199 3,700 -1,020 Descending Cleveland Center